createdAt,value
2023-03-27T00:02:24.068Z,46.85
2023-03-27T00:05:28.704Z,46.75
2023-03-27T00:08:35.190Z,46.30
2023-03-27T00:11:39.278Z,53.25
2023-03-27T00:14:42.682Z,49.38
2023-03-27T00:17:52.588Z,51.40
2023-03-27T00:21:03.793Z,53.80
2023-03-27T00:24:12.148Z,54.28
2023-03-27T00:27:15.424Z,52.95
2023-03-27T00:30:19.841Z,51.30
2023-03-27T00:33:24.638Z,47.97
2023-03-27T00:36:28.269Z,46.13
2023-03-27T00:39:32.009Z,42.55
2023-03-27T00:42:36.572Z,48.90
2023-03-27T00:45:39.893Z,52.15
2023-03-27T00:48:47.926Z,60.78
2023-03-27T00:51:53.805Z,61.15
2023-03-27T00:55:00.123Z,65.82
2023-03-27T00:58:08.700Z,67.63
2023-03-27T01:01:15.986Z,72.93
2023-03-27T01:04:22.436Z,68.47
2023-03-27T01:07:26.852Z,65.47
2023-03-27T01:11:05.300Z,72.70
2023-03-27T01:14:32.952Z,77.53
2023-03-27T01:17:50.616Z,82.57
2023-03-27T01:21:16.147Z,65.15
2023-03-27T01:24:38.789Z,48.92
2023-03-27T01:27:52.233Z,60.17
2023-03-27T01:31:21.841Z,65.57
2023-03-27T01:34:31.308Z,80.97
2023-03-27T01:37:42.016Z,84.53
2023-03-27T01:40:53.870Z,86.10
2023-03-27T01:44:45.297Z,77.35
2023-03-27T01:48:21.328Z,58.70
2023-03-27T01:51:39.112Z,42.80
2023-03-27T01:54:47.626Z,28.50
2023-03-27T01:58:06.220Z,34.15
2023-03-27T02:01:12.035Z,31.42
2023-03-27T02:04:34.353Z,39.80
2023-03-27T02:07:44.848Z,76.88
2023-03-27T02:10:53.342Z,39.92
2023-03-27T02:14:04.961Z,54.47
2023-03-27T02:17:14.752Z,80.68
2023-03-27T02:20:18.597Z,129.55
2023-03-27T02:23:23.635Z,107.72
2023-03-27T02:26:27.262Z,68.47
2023-03-27T02:29:46.385Z,66.78
2023-03-27T02:32:54.663Z,130.25
2023-03-27T02:36:32.953Z,109.88
2023-03-27T02:39:45.953Z,64.80
2023-03-27T02:43:07.912Z,89.88
2023-03-27T02:46:21.933Z,71.30
2023-03-27T02:49:52.004Z,61.83
2023-03-27T02:53:01.560Z,55.22
2023-03-27T02:56:07.472Z,35.63
2023-03-27T02:59:41.058Z,30.15
2023-03-27T03:02:46.420Z,29.45
2023-03-27T03:05:51.506Z,93.80
2023-03-27T03:11:58.676Z,31.25
2023-03-27T03:15:01.944Z,54.13
2023-03-27T03:18:08.275Z,35.45
2023-03-27T03:21:11.531Z,62.72
2023-03-27T03:24:14.769Z,31.35
2023-03-27T03:27:21.574Z,39.25
2023-03-27T03:30:50.983Z,41.05
2023-03-27T03:33:54.694Z,62.95
2023-03-27T03:36:58.171Z,43.35
2023-03-27T03:40:12.346Z,31.40
2023-03-27T03:43:20.541Z,36.30
2023-03-27T03:46:23.875Z,33.87
2023-03-27T03:49:27.724Z,32.38
2023-03-27T03:52:31.429Z,27.42
2023-03-27T03:55:34.593Z,38.45
2023-03-27T03:58:37.934Z,32.65
2023-03-27T04:01:42.100Z,25.03
2023-03-27T04:04:46.690Z,23.02
2023-03-27T04:07:51.857Z,29.95
2023-03-27T04:11:16.404Z,23.55
2023-03-27T04:14:33.439Z,24.02
2023-03-27T04:17:41.445Z,23.85
2023-03-27T04:24:03.008Z,19.38
2023-03-27T04:27:22.076Z,23.42
2023-03-27T04:30:37.669Z,18.00
2023-03-27T04:34:00.629Z,15.75
2023-03-27T04:37:24.161Z,15.25
2023-03-27T04:40:50.377Z,16.70
2023-03-27T04:43:54.473Z,10.97
2023-03-27T04:47:02.577Z,11.13
2023-03-27T04:50:08.421Z,13.00
2023-03-27T04:53:12.233Z,11.50
2023-03-27T04:56:20.837Z,7.75
2023-03-27T04:59:24.958Z,7.97
2023-03-27T05:02:49.302Z,10.38
2023-03-27T05:06:10.729Z,12.05
2023-03-27T05:09:14.444Z,7.18
2023-03-27T05:12:17.830Z,9.35
2023-03-27T05:15:30.874Z,10.38
2023-03-27T05:18:35.014Z,8.65
2023-03-27T05:21:39.291Z,8.98
2023-03-27T05:24:45.370Z,6.50
2023-03-27T05:27:50.447Z,6.07
2023-03-27T05:30:53.786Z,8.45
2023-03-27T05:33:59.259Z,7.72
2023-03-27T05:37:06.650Z,9.20
2023-03-27T05:40:25.606Z,11.57
2023-03-27T05:43:28.947Z,7.90
2023-03-27T05:46:32.151Z,9.93
2023-03-27T05:49:42.282Z,7.18
2023-03-27T05:52:48.713Z,7.75
2023-03-27T05:56:02.937Z,8.13
2023-03-27T05:59:15.378Z,9.60
2023-03-27T06:02:22.648Z,10.77
2023-03-27T06:05:35.166Z,6.10
2023-03-27T06:08:38.671Z,8.88
2023-03-27T06:11:45.547Z,7.07
2023-03-27T06:14:48.913Z,10.90
2023-03-27T06:18:12.878Z,10.65
2023-03-27T06:21:16.866Z,4.50
2023-03-27T06:24:20.035Z,7.00
2023-03-27T06:27:23.919Z,8.70
2023-03-27T06:30:28.292Z,5.07
2023-03-27T06:33:49.810Z,6.28
2023-03-27T06:37:07.409Z,6.75
2023-03-27T06:40:25.576Z,6.63
2023-03-27T06:43:30.524Z,6.07
2023-03-27T06:46:45.911Z,6.45
2023-03-27T06:50:05.706Z,8.20
2023-03-27T06:53:19.636Z,8.00
2023-03-27T06:56:29.545Z,8.23
2023-03-27T06:59:51.358Z,8.70
2023-03-27T07:03:01.909Z,7.55
2023-03-27T07:06:31.712Z,8.13
2023-03-27T07:09:42.756Z,4.10
2023-03-27T07:12:49.681Z,5.97
2023-03-27T07:15:55.480Z,5.90
2023-03-27T07:19:01.888Z,3.67
2023-03-27T07:22:08.596Z,7.05
2023-03-27T07:25:13.394Z,9.70
2023-03-27T07:28:22.801Z,7.95
2023-03-27T07:31:39.497Z,6.28
2023-03-27T07:34:54.264Z,6.20
2023-03-27T07:37:58.503Z,5.30
2023-03-27T07:41:12.303Z,6.32
2023-03-27T07:44:31.460Z,4.55
2023-03-27T07:47:44.206Z,7.00
2023-03-27T07:50:51.858Z,5.72
2023-03-27T07:54:05.145Z,5.72
2023-03-27T07:57:12.391Z,9.82
2023-03-27T08:00:41.084Z,6.20
2023-03-27T08:03:49.524Z,5.15
2023-03-27T08:06:58.206Z,4.68
2023-03-27T08:10:01.800Z,5.93
2023-03-27T08:13:13.295Z,5.97
2023-03-27T08:16:18.869Z,4.70
2023-03-27T08:19:23.479Z,8.93
2023-03-27T08:22:30.409Z,5.05
2023-03-27T08:26:02.879Z,4.50
2023-03-27T08:29:12.894Z,7.68
2023-03-27T08:32:19.003Z,8.02
2023-03-27T08:35:24.634Z,9.38
2023-03-27T08:38:33.725Z,7.90
2023-03-27T08:41:56.100Z,9.27
2023-03-27T08:45:43.738Z,6.05
2023-03-27T08:49:10.025Z,7.00
2023-03-27T08:52:18.139Z,8.82
2023-03-27T08:55:41.981Z,8.38
2023-03-27T08:59:01.394Z,5.07
2023-03-27T09:02:16.568Z,8.13
2023-03-27T09:05:31.232Z,7.20
2023-03-27T09:09:04.006Z,6.85
2023-03-27T09:12:19.294Z,5.53
2023-03-27T09:15:26.865Z,5.43
2023-03-27T09:18:37.001Z,5.00
2023-03-27T09:21:55.437Z,7.22
2023-03-27T09:25:45.980Z,6.43
2023-03-27T09:29:20.390Z,10.93
2023-03-27T09:32:33.979Z,12.77
2023-03-27T09:35:39.343Z,14.43
2023-03-27T09:38:47.047Z,15.25
2023-03-27T09:42:06.794Z,18.83
2023-03-27T09:45:14.193Z,19.33
2023-03-27T09:48:47.781Z,20.25
2023-03-27T09:51:54.836Z,21.67
2023-03-27T09:55:31.444Z,16.92
2023-03-27T09:58:46.892Z,20.88
2023-03-27T10:01:53.427Z,22.98
2023-03-27T10:05:14.923Z,17.15
2023-03-27T10:08:27.294Z,18.45
2023-03-27T10:11:43.274Z,20.17
2023-03-27T10:14:58.848Z,31.17
2023-03-27T10:18:28.179Z,35.05
2023-03-27T10:21:48.234Z,28.55
2023-03-27T10:25:05.445Z,23.27
2023-03-27T10:28:35.256Z,24.02
2023-03-27T10:31:54.333Z,25.50
2023-03-27T10:35:37.183Z,19.25
2023-03-27T10:38:57.446Z,27.23
2023-03-27T10:42:32.428Z,26.27
2023-03-27T10:45:52.677Z,41.13
2023-03-27T10:49:26.225Z,44.72
2023-03-27T10:53:11.624Z,47.00
2023-03-27T10:56:32.987Z,33.90
2023-03-27T10:59:42.242Z,29.52
2023-03-27T11:03:04.577Z,34.03
2023-03-27T11:06:20.715Z,32.30
2023-03-27T11:09:42.413Z,37.73
2023-03-27T11:12:59.914Z,37.53
2023-03-27T11:16:21.564Z,32.00
2023-03-27T11:19:54.587Z,34.83
2023-03-27T11:23:55.223Z,34.90
2023-03-27T11:27:19.634Z,34.78
2023-03-27T11:30:40.200Z,34.30
2023-03-27T11:34:34.301Z,34.65
2023-03-27T11:38:32.242Z,32.42
2023-03-27T11:41:38.268Z,31.58
2023-03-27T11:44:42.808Z,29.20
2023-03-27T11:48:30.620Z,26.17
2023-03-27T11:51:34.264Z,30.77
2023-03-27T11:54:40.299Z,28.30
2023-03-27T11:58:18.130Z,23.67
2023-03-27T12:01:56.819Z,23.15
2023-03-27T12:05:18.449Z,23.55
2023-03-27T12:08:47.178Z,34.78
2023-03-27T12:12:14.373Z,44.30
2023-03-27T12:15:53.016Z,25.35
2023-03-27T12:19:28.550Z,30.17
2023-03-27T12:23:18.717Z,27.42
2023-03-27T12:26:55.205Z,31.17
2023-03-27T12:30:23.619Z,39.88
2023-03-27T12:33:37.841Z,33.25
2023-03-27T12:36:45.622Z,25.13
2023-03-27T12:39:57.410Z,19.20
2023-03-27T12:43:08.692Z,24.70
2023-03-27T12:46:32.251Z,21.33
2023-03-27T12:49:47.540Z,19.80
2023-03-27T12:56:18.199Z,22.95
2023-03-27T12:59:29.358Z,23.40
2023-03-27T13:02:49.608Z,22.20
2023-03-27T13:06:18.844Z,31.52
2023-03-27T13:09:33.041Z,18.88
2023-03-27T13:13:03.346Z,19.77
2023-03-27T13:16:17.588Z,19.65
2023-03-27T13:19:34.828Z,18.15
2023-03-27T13:23:02.866Z,23.40
2023-03-27T13:26:17.911Z,20.73
2023-03-27T13:29:24.934Z,18.17
2023-03-27T13:32:43.199Z,21.88
2023-03-27T13:35:58.731Z,18.90
2023-03-27T13:39:06.661Z,16.73
2023-03-27T13:42:15.192Z,17.35
2023-03-27T13:45:39.542Z,20.20
2023-03-27T13:49:19.131Z,17.00
2023-03-27T13:53:01.886Z,18.80
2023-03-27T13:56:36.305Z,14.18
2023-03-27T14:00:07.958Z,17.42
2023-03-27T14:03:38.511Z,20.10
2023-03-27T14:07:21.803Z,19.95
2023-03-27T14:11:15.487Z,16.05
2023-03-27T14:14:42.908Z,15.63
2023-03-27T14:18:14.603Z,17.75
2023-03-27T14:21:35.646Z,15.77
2023-03-27T14:25:12.284Z,19.35
2023-03-27T14:28:36.325Z,15.23
2023-03-27T14:31:44.818Z,15.80
2023-03-27T14:35:36.680Z,17.35
2023-03-27T14:38:42.687Z,20.20
2023-03-27T14:42:00.685Z,17.83
2023-03-27T14:45:23.603Z,13.95
2023-03-27T14:48:41.949Z,14.50
2023-03-27T14:51:48.187Z,14.40
2023-03-27T14:55:14.723Z,13.15
2023-03-27T14:58:20.074Z,12.80
2023-03-27T15:01:26.827Z,16.40
2023-03-27T15:04:34.077Z,13.85
2023-03-27T15:07:45.719Z,13.02
2023-03-27T15:11:22.308Z,12.32
2023-03-27T15:14:42.288Z,14.52
2023-03-27T15:17:46.865Z,14.10
2023-03-27T15:20:51.457Z,14.43
2023-03-27T15:24:11.033Z,14.27
2023-03-27T15:27:20.790Z,12.88
2023-03-27T15:30:29.518Z,14.50
2023-03-27T15:33:41.810Z,11.95
2023-03-27T15:36:57.644Z,12.20
2023-03-27T15:40:16.122Z,15.15
2023-03-27T15:43:25.186Z,13.57
2023-03-27T15:46:35.488Z,17.45
2023-03-27T15:49:42.547Z,15.10
2023-03-27T15:52:51.060Z,13.38
2023-03-27T15:55:56.759Z,11.15
2023-03-27T15:59:02.725Z,13.75
2023-03-27T16:02:12.142Z,12.30
2023-03-27T16:05:18.500Z,10.70
2023-03-27T16:08:30.579Z,8.73
2023-03-27T16:11:55.090Z,10.20
2023-03-27T16:14:59.773Z,8.60
2023-03-27T16:18:14.178Z,8.95
2023-03-27T16:21:17.969Z,18.05
2023-03-27T16:24:21.555Z,10.10
2023-03-27T16:27:28.524Z,9.05
2023-03-27T16:30:39.417Z,9.95
2023-03-27T16:33:46.359Z,8.75
2023-03-27T16:36:49.631Z,10.00
2023-03-27T16:39:53.478Z,10.40
2023-03-27T16:42:56.825Z,9.93
2023-03-27T16:46:00.230Z,10.27
2023-03-27T16:49:03.951Z,13.32
2023-03-27T16:52:07.492Z,16.55
2023-03-27T16:55:12.145Z,12.90
2023-03-27T16:58:15.284Z,11.35
2023-03-27T17:01:18.501Z,25.58
2023-03-27T17:04:22.150Z,16.30
2023-03-27T17:07:28.087Z,20.60
2023-03-27T17:10:31.800Z,12.75
2023-03-27T17:13:35.109Z,13.07
2023-03-27T17:16:38.882Z,17.52
2023-03-27T17:19:42.047Z,15.35
2023-03-27T17:22:46.227Z,15.00
2023-03-27T17:25:50.115Z,16.08
2023-03-27T17:28:53.782Z,11.63
2023-03-27T17:32:01.437Z,11.60
2023-03-27T17:35:05.208Z,12.00
2023-03-27T17:38:09.142Z,13.32
2023-03-27T17:41:13.889Z,15.07
2023-03-27T17:44:17.032Z,11.70
2023-03-27T17:47:20.138Z,11.68
2023-03-27T17:50:23.354Z,12.13
2023-03-27T17:53:28.135Z,15.73
2023-03-27T17:59:37.052Z,10.93
2023-03-27T18:02:40.272Z,16.48
2023-03-27T18:05:44.209Z,15.73
2023-03-27T18:08:47.931Z,12.20
2023-03-27T18:11:51.389Z,13.00
2023-03-27T18:14:54.571Z,12.32
2023-03-27T18:17:57.824Z,10.00
2023-03-27T18:21:01.247Z,7.95
2023-03-27T18:24:04.699Z,10.75
2023-03-27T18:27:07.893Z,18.67
2023-03-27T18:30:13.941Z,11.75
2023-03-27T18:33:17.226Z,10.70
2023-03-27T18:36:21.006Z,9.77
2023-03-27T18:39:24.244Z,9.88
2023-03-27T18:42:28.079Z,10.00
2023-03-27T18:45:31.314Z,13.15
2023-03-27T18:48:34.950Z,11.15
2023-03-27T18:51:38.044Z,12.68
2023-03-27T18:54:41.360Z,13.80
2023-03-27T18:57:45.728Z,14.80
2023-03-27T19:00:48.941Z,11.48
2023-03-27T19:03:52.224Z,10.25
2023-03-27T19:06:55.391Z,14.38
2023-03-27T19:09:58.614Z,11.18
2023-03-27T19:13:11.119Z,12.07
2023-03-27T19:16:26.229Z,11.13
2023-03-27T19:19:43.990Z,9.10
2023-03-27T19:22:49.135Z,12.07
2023-03-27T19:26:17.788Z,11.95
2023-03-27T19:29:21.806Z,15.05
2023-03-27T19:32:27.135Z,11.27
2023-03-27T19:35:30.323Z,9.80
2023-03-27T19:38:34.510Z,12.82
2023-03-27T19:41:37.655Z,13.35
2023-03-27T19:44:40.904Z,15.15
2023-03-27T19:47:44.352Z,15.00
2023-03-27T19:50:48.029Z,7.40
2023-03-27T19:53:56.120Z,14.75
2023-03-27T19:57:01.702Z,9.50
2023-03-27T20:00:13.361Z,9.95
2023-03-27T20:03:20.571Z,6.28
2023-03-27T20:06:26.650Z,7.00
2023-03-27T20:09:29.750Z,9.43
2023-03-27T20:12:33.209Z,10.13
2023-03-27T20:15:39.455Z,10.30
2023-03-27T20:18:43.482Z,8.65
2023-03-27T20:21:47.368Z,4.53
2023-03-27T20:24:51.896Z,9.30
2023-03-27T20:27:56.594Z,7.07
2023-03-27T20:31:07.106Z,9.27
2023-03-27T20:34:11.072Z,15.82
2023-03-27T20:37:14.268Z,10.80
2023-03-27T20:40:26.628Z,28.88
2023-03-27T20:46:34.903Z,26.30
2023-03-27T20:49:41.538Z,41.80
2023-03-27T20:52:48.951Z,37.03
2023-03-27T20:56:00.448Z,36.15
2023-03-27T20:59:03.771Z,27.30
2023-03-27T21:02:07.776Z,13.27
2023-03-27T21:05:11.680Z,12.63
2023-03-27T21:08:15.278Z,12.10
2023-03-27T21:11:18.376Z,13.80
2023-03-27T21:14:21.831Z,17.58
2023-03-27T21:17:25.035Z,19.40
2023-03-27T21:20:28.474Z,18.92
2023-03-27T21:23:31.753Z,12.55
2023-03-27T21:26:35.520Z,12.70
2023-03-27T21:29:38.719Z,9.77
2023-03-27T21:32:42.306Z,9.70
2023-03-27T21:35:49.487Z,7.47
2023-03-27T21:38:52.638Z,9.15
2023-03-27T21:41:55.812Z,22.90
2023-03-27T21:44:59.004Z,13.95
2023-03-27T21:48:02.315Z,14.45
2023-03-27T21:51:09.281Z,42.97
2023-03-27T21:54:12.587Z,55.28
2023-03-27T21:57:16.315Z,59.50
2023-03-27T22:00:20.309Z,45.05
2023-03-27T22:03:23.616Z,48.30
2023-03-27T22:06:29.428Z,42.15
2023-03-27T22:09:32.936Z,41.03
2023-03-27T22:12:37.968Z,19.75
2023-03-27T22:15:41.385Z,16.10
2023-03-27T22:18:45.387Z,15.98
2023-03-27T22:21:48.549Z,10.70
2023-03-27T22:24:51.677Z,14.40
2023-03-27T22:27:54.870Z,15.50
2023-03-27T22:30:58.270Z,14.27
2023-03-27T22:34:01.676Z,11.90
2023-03-27T22:37:04.887Z,12.45
2023-03-27T22:40:08.780Z,12.35
2023-03-27T22:43:12.029Z,14.37
2023-03-27T22:46:26.256Z,10.15
2023-03-27T22:49:29.635Z,11.35
2023-03-27T22:52:32.994Z,11.45
2023-03-27T22:55:36.338Z,15.00
2023-03-27T22:58:39.773Z,44.15
2023-03-27T23:01:43.021Z,38.58
2023-03-27T23:04:46.297Z,48.67
2023-03-27T23:07:49.478Z,45.95
2023-03-27T23:10:58.072Z,35.08
2023-03-27T23:14:01.812Z,37.25
2023-03-27T23:17:05.236Z,34.83
2023-03-27T23:20:08.898Z,38.72
2023-03-27T23:23:12.069Z,31.25
2023-03-27T23:26:16.079Z,39.88
2023-03-27T23:29:19.530Z,42.27
2023-03-27T23:32:23.036Z,45.35
2023-03-27T23:35:26.220Z,50.17
2023-03-27T23:38:29.829Z,40.78
2023-03-27T23:41:33.007Z,48.25
2023-03-27T23:44:36.378Z,55.38
2023-03-27T23:47:39.744Z,38.55
2023-03-27T23:50:42.836Z,37.20
2023-03-27T23:53:46.325Z,26.08
2023-03-27T23:56:49.580Z,27.55
2023-03-27T23:59:52.754Z,23.27
